Lana — WDB2809 — position and weather

sailwx.info

Track history (hours):
 
Tides and Currents Weather Stations Pressure Air Temp Water Temp Dewpoint Dewpoint Depression Visibility Wind Speed Wind Dir Waves Ship Positions

Lana

Owner: MARINE EXPRESS INCORPORATION, ALAMEDA, CA. More information available from US FCC via Universal Licensing System.

Last reported at 2018-Jan-12 07:39 UTC. Time now 2018-Jan-18 06:17 UTC.
Position N 37°47' W 122°17'.

Length 19 m.

Type: Passenger vessel. MMSI: 338108125.

Date/timePositionNaut miles runAvg speedWind from/ knotsBaromVisibWave heightAir tempDewpointWater temp
2018-Jan-12 07:39N 37°47' W 122°17'0 1.5
2018-Jan-12 07:31N 37°48' W 122°18'4 8.2
2018-Jan-12 07:01N 37°44' W 122°19'0 0.6
2018-Jan-12 06:30N 37°44' W 122°19'4 7.8
2018-Jan-12 06:00N 37°48' W 122°20'2 4.4
2018-Jan-12 05:30N 37°47' W 122°17'0 0.0
2018-Jan-12 05:01N 37°47' W 122°17'0 0.0
2018-Jan-12 04:30N 37°47' W 122°17'2 4.8
2018-Jan-12 04:00N 37°47' W 122°20'3 5.3
2018-Jan-12 03:30N 37°45' W 122°21'0 0.0
2018-Jan-12 03:00N 37°45' W 122°21'0 0.0
2018-Jan-12 02:30N 37°45' W 122°21'4 7.9
2018-Jan-12 02:00N 37°47' W 122°17'0 0.0
2018-Jan-12 01:30N 37°47' W 122°17'2 3.3
2018-Jan-12 01:01N 37°48' W 122°19'3 5.4
2018-Jan-12 00:30N 37°46' W 122°21'0 0.3
2018-Jan-12 00:00N 37°45' W 122°21'2 4.3
2018-Jan-11 23:30N 37°47' W 122°23'4 8.7
2018-Jan-11 23:00N 37°48' W 122°18'0 0.3
2018-Jan-11 21:18N 37°47' W 122°17'2 5.3
2018-Jan-11 21:00N 37°48' W 122°19'3 5.4
2018-Jan-11 20:30N 37°46' W 122°21'0 0.1
2018-Jan-11 20:00N 37°46' W 122°21'2 3.5
2018-Jan-11 19:30N 37°47' W 122°23'5 9.2
2018-Jan-11 19:00N 37°48' W 122°17'0 0.0
2018-Jan-11 06:39N 37°47' W 122°17'0 3.2
2018-Jan-11 06:30N 37°48' W 122°18'4 7.3
2018-Jan-11 06:00N 37°44' W 122°20'0 0.1
2018-Jan-11 05:30N 37°44' W 122°20'1 1.4
2018-Jan-11 05:01N 37°45' W 122°21'3 7.0
2018-Jan-11 04:30N 37°47' W 122°17'0 0.0
2018-Jan-10 18:22N 37°47' W 122°17'1 1.6
2018-Jan-10 18:00N 37°48' W 122°18'0 0.1
2018-Jan-10 17:30N 37°48' W 122°18'1 0.2
2018-Jan-10 14:16N 37°47' W 122°17'1 2.3
2018-Jan-10 14:00N 37°48' W 122°18'0 0.1
2018-Jan-10 13:30N 37°48' W 122°18'1 1.1
2018-Jan-10 13:00N 37°47' W 122°17'0 0.0
2018-Jan-10 12:30N 37°47' W 122°17'0 0.0
2018-Jan-10 01:14N 37°47' W 122°17'1 6.2
2018-Jan-10 01:01N 37°48' W 122°19'2 4.3
2018-Jan-10 00:30N 37°46' W 122°21'0 0.0
2018-Jan-10 00:00N 37°46' W 122°21'3 6.3
2018-Jan-09 23:31N 37°47' W 122°17'0 0.0
2018-Jan-09 23:01N 37°47' W 122°17'0 0.0
2018-Jan-09 22:31N 37°47' W 122°17'0 0.0
2018-Jan-09 22:01N 37°47' W 122°17'3 5.2
2018-Jan-09 21:30N 37°46' W 122°20'4 7.1
2018-Jan-09 21:00N 37°43' W 122°19'0 0.0
2018-Jan-09 20:30N 37°43' W 122°19'0 0.1
2018-Jan-09 20:00N 37°43' W 122°19'2 4.6
2018-Jan-09 19:31N 37°45' W 122°20'4 7.2
2018-Jan-09 19:01N 37°47' W 122°17'0 0.0
2018-Jan-09 04:29N 37°47' W 122°17'3 7.0
2018-Jan-09 04:00N 37°46' W 122°21'1 2.4
2018-Jan-09 03:30N 37°44' W 122°20'3 5.0
2018-Jan-09 03:00N 37°47' W 122°21'3 5.8
2018-Jan-09 02:31N 37°47' W 122°17'0 0.0
2018-Jan-09 02:00N 37°47' W 122°17'0 0.1
2018-Jan-09 01:30N 37°47' W 122°17'4 7.1
2018-Jan-09 01:00N 37°45' W 122°21'1 2.2
2018-Jan-09 00:30N 37°44' W 122°20'3 6.6
2018-Jan-09 00:00N 37°47' W 122°20'2 4.9
2018-Jan-08 23:30N 37°47' W 122°17'0 0.0
2018-Jan-08 23:00N 37°47' W 122°17'0 0.0
2018-Jan-07 23:24N 37°47' W 122°17'0 0.1
2018-Jan-07 23:01N 37°47' W 122°17'510.7
2018-Jan-07 22:30N 37°48' W 122°24'1 1.8
2018-Jan-07 22:01N 37°48' W 122°23'3 6.5
2018-Jan-07 21:31N 37°48' W 122°19'5 9.4
2018-Jan-07 21:00N 37°43' W 122°20'5125.8
2018-Jan-07 20:58N 37°47' W 122°17'3 7.1
2018-Jan-07 20:30N 37°46' W 122°21'0 0.8
2018-Jan-07 20:01N 37°46' W 122°21'2 4.9
2018-Jan-07 19:31N 37°48' W 122°18'1 0.5
2018-Jan-07 17:41N 37°47' W 122°17'1 3.3
2018-Jan-07 17:30N 37°48' W 122°17'2 3.0
2018-Jan-07 17:00N 37°48' W 122°18'5 9.0
2018-Jan-07 16:30N 37°43' W 122°20'5 9.1
2018-Jan-07 16:01N 37°48' W 122°20'2 4.7
2018-Jan-07 15:30N 37°47' W 122°17'0 0.0
2018-Jan-06 22:51N 37°48' W 122°17'3 8.1
2018-Jan-06 22:31N 37°47' W 122°21'3 5.0
2018-Jan-06 22:01N 37°44' W 122°20'0 0.1
2018-Jan-06 21:30N 37°44' W 122°20'4 7.5
2018-Jan-06 21:00N 37°48' W 122°18'1 0.0
2018-Jan-04 23:57N 37°47' W 122°17'4 8.3
2018-Jan-04 23:30N 37°49' W 122°21'510.7
2018-Jan-04 23:00N 37°54' W 122°23'1 1.5
2018-Jan-04 22:14N 37°55' W 122°22'0 0.0
2018-Jan-04 22:00N 37°55' W 122°22'2 5.0
2018-Jan-04 21:31N 37°53' W 122°24'713.5
2018-Jan-04 21:00N 37°48' W 122°19'1 0.1
2018-Jan-03 22:42N 37°47' W 122°17'0 2.1
2018-Jan-03 22:31N 37°48' W 122°18'4 7.0
2018-Jan-03 22:00N 37°44' W 122°20'0 0.3
2018-Jan-03 21:31N 37°44' W 122°20'0 0.3
2018-Jan-03 21:00N 37°44' W 122°20'1 1.1
2018-Jan-03 20:30N 37°45' W 122°20'4 7.5
2018-Jan-03 20:00N 37°47' W 122°17'0 0.0
2018-Jan-03 17:53N 37°47' W 122°17'4 9.5
2018-Jan-03 17:30N 37°48' W 122°22'2 3.7
2018-Jan-03 17:00N 37°50' W 122°23'4 8.9
2018-Jan-03 16:30N 37°48' W 122°18'1 1.4
2018-Jan-03 16:00N 37°47' W 122°17'0 0.0
2018-Jan-02 23:29N 37°47' W 122°17'3 6.8
2018-Jan-02 23:01N 37°46' W 122°21'0 0.7
2018-Jan-02 22:31N 37°46' W 122°21'3 6.6
2018-Jan-02 22:00N 37°47' W 122°17'1 2.3
2018-Jan-02 21:30N 37°48' W 122°19'2 4.6
2018-Jan-02 21:00N 37°46' W 122°20'0 0.1
2018-Jan-02 20:30N 37°46' W 122°20'0 0.3
2018-Jan-02 20:00N 37°45' W 122°20'0 0.2
2018-Jan-02 19:30N 37°45' W 122°20'2 4.5
2018-Jan-02 19:01N 37°48' W 122°20'2 4.4
2018-Jan-02 18:31N 37°47' W 122°17'  
Track history (hours):
 
Tides and Currents Weather Stations Pressure Air Temp Water Temp Dewpoint Dewpoint Depression Visibility Wind Speed Wind Dir Waves Ship Positions

Lana

Owner: MARINE EXPRESS INCORPORATION, ALAMEDA, CA. More information available from US FCC via Universal Licensing System.

Last reported at 2018-Jan-12 07:39 UTC. Time now 2018-Jan-18 06:17 UTC.
Position N 37°47' W 122°17'.

Length 19 m.

Type: Passenger vessel. MMSI: 338108125.

Date/timePositionNaut miles runAvg speedWind from/ knotsBaromVisibWave heightAir tempDewpointWater temp
2018-Jan-12 07:39N 37°47' W 122°17'0 1.5
2018-Jan-12 07:31N 37°48' W 122°18'4 8.2
2018-Jan-12 07:01N 37°44' W 122°19'0 0.6
2018-Jan-12 06:30N 37°44' W 122°19'4 7.8
2018-Jan-12 06:00N 37°48' W 122°20'2 4.4
2018-Jan-12 05:30N 37°47' W 122°17'0 0.0
2018-Jan-12 05:01N 37°47' W 122°17'0 0.0
2018-Jan-12 04:30N 37°47' W 122°17'2 4.8
2018-Jan-12 04:00N 37°47' W 122°20'3 5.3
2018-Jan-12 03:30N 37°45' W 122°21'0 0.0
2018-Jan-12 03:00N 37°45' W 122°21'0 0.0
2018-Jan-12 02:30N 37°45' W 122°21'4 7.9
2018-Jan-12 02:00N 37°47' W 122°17'0 0.0
2018-Jan-12 01:30N 37°47' W 122°17'2 3.3
2018-Jan-12 01:01N 37°48' W 122°19'3 5.4
2018-Jan-12 00:30N 37°46' W 122°21'0 0.3
2018-Jan-12 00:00N 37°45' W 122°21'2 4.3
2018-Jan-11 23:30N 37°47' W 122°23'4 8.7
2018-Jan-11 23:00N 37°48' W 122°18'0 0.3
2018-Jan-11 21:18N 37°47' W 122°17'2 5.3
2018-Jan-11 21:00N 37°48' W 122°19'3 5.4
2018-Jan-11 20:30N 37°46' W 122°21'0 0.1
2018-Jan-11 20:00N 37°46' W 122°21'2 3.5
2018-Jan-11 19:30N 37°47' W 122°23'5 9.2
2018-Jan-11 19:00N 37°48' W 122°17'0 0.0
2018-Jan-11 06:39N 37°47' W 122°17'0 3.2
2018-Jan-11 06:30N 37°48' W 122°18'4 7.3
2018-Jan-11 06:00N 37°44' W 122°20'0 0.1
2018-Jan-11 05:30N 37°44' W 122°20'1 1.4
2018-Jan-11 05:01N 37°45' W 122°21'3 7.0
2018-Jan-11 04:30N 37°47' W 122°17'0 0.0
2018-Jan-10 18:22N 37°47' W 122°17'1 1.6
2018-Jan-10 18:00N 37°48' W 122°18'0 0.1
2018-Jan-10 17:30N 37°48' W 122°18'1 0.2
2018-Jan-10 14:16N 37°47' W 122°17'1 2.3
2018-Jan-10 14:00N 37°48' W 122°18'0 0.1
2018-Jan-10 13:30N 37°48' W 122°18'1 1.1
2018-Jan-10 13:00N 37°47' W 122°17'0 0.0
2018-Jan-10 12:30N 37°47' W 122°17'0 0.0
2018-Jan-10 01:14N 37°47' W 122°17'1 6.2
2018-Jan-10 01:01N 37°48' W 122°19'2 4.3
2018-Jan-10 00:30N 37°46' W 122°21'0 0.0
2018-Jan-10 00:00N 37°46' W 122°21'3 6.3
2018-Jan-09 23:31N 37°47' W 122°17'0 0.0
2018-Jan-09 23:01N 37°47' W 122°17'0 0.0
2018-Jan-09 22:31N 37°47' W 122°17'0 0.0
2018-Jan-09 22:01N 37°47' W 122°17'3 5.2
2018-Jan-09 21:30N 37°46' W 122°20'4 7.1
2018-Jan-09 21:00N 37°43' W 122°19'0 0.0
2018-Jan-09 20:30N 37°43' W 122°19'0 0.1
2018-Jan-09 20:00N 37°43' W 122°19'2 4.6
2018-Jan-09 19:31N 37°45' W 122°20'4 7.2
2018-Jan-09 19:01N 37°47' W 122°17'0 0.0
2018-Jan-09 04:29N 37°47' W 122°17'3 7.0
2018-Jan-09 04:00N 37°46' W 122°21'1 2.4
2018-Jan-09 03:30N 37°44' W 122°20'3 5.0
2018-Jan-09 03:00N 37°47' W 122°21'3 5.8
2018-Jan-09 02:31N 37°47' W 122°17'0 0.0
2018-Jan-09 02:00N 37°47' W 122°17'0 0.1
2018-Jan-09 01:30N 37°47' W 122°17'4 7.1
2018-Jan-09 01:00N 37°45' W 122°21'1 2.2
2018-Jan-09 00:30N 37°44' W 122°20'3 6.6
2018-Jan-09 00:00N 37°47' W 122°20'2 4.9
2018-Jan-08 23:30N 37°47' W 122°17'0 0.0
2018-Jan-08 23:00N 37°47' W 122°17'0 0.0
2018-Jan-07 23:24N 37°47' W 122°17'0 0.1
2018-Jan-07 23:01N 37°47' W 122°17'510.7
2018-Jan-07 22:30N 37°48' W 122°24'1 1.8
2018-Jan-07 22:01N 37°48' W 122°23'3 6.5
2018-Jan-07 21:31N 37°48' W 122°19'5 9.4
2018-Jan-07 21:00N 37°43' W 122°20'5125.8
2018-Jan-07 20:58N 37°47' W 122°17'3 7.1
2018-Jan-07 20:30N 37°46' W 122°21'0 0.8
2018-Jan-07 20:01N 37°46' W 122°21'2 4.9
2018-Jan-07 19:31N 37°48' W 122°18'1 0.5
2018-Jan-07 17:41N 37°47' W 122°17'1 3.3
2018-Jan-07 17:30N 37°48' W 122°17'2 3.0
2018-Jan-07 17:00N 37°48' W 122°18'5 9.0
2018-Jan-07 16:30N 37°43' W 122°20'5 9.1
2018-Jan-07 16:01N 37°48' W 122°20'2 4.7
2018-Jan-07 15:30N 37°47' W 122°17'0 0.0
2018-Jan-06 22:51N 37°48' W 122°17'3 8.1
2018-Jan-06 22:31N 37°47' W 122°21'3 5.0
2018-Jan-06 22:01N 37°44' W 122°20'0 0.1
2018-Jan-06 21:30N 37°44' W 122°20'4 7.5
2018-Jan-06 21:00N 37°48' W 122°18'1 0.0
2018-Jan-04 23:57N 37°47' W 122°17'4 8.3
2018-Jan-04 23:30N 37°49' W 122°21'510.7
2018-Jan-04 23:00N 37°54' W 122°23'1 1.5
2018-Jan-04 22:14N 37°55' W 122°22'0 0.0
2018-Jan-04 22:00N 37°55' W 122°22'2 5.0
2018-Jan-04 21:31N 37°53' W 122°24'713.5
2018-Jan-04 21:00N 37°48' W 122°19'1 0.1
2018-Jan-03 22:42N 37°47' W 122°17'0 2.1
2018-Jan-03 22:31N 37°48' W 122°18'4 7.0
2018-Jan-03 22:00N 37°44' W 122°20'0 0.3
2018-Jan-03 21:31N 37°44' W 122°20'0 0.3
2018-Jan-03 21:00N 37°44' W 122°20'1 1.1
2018-Jan-03 20:30N 37°45' W 122°20'4 7.5
2018-Jan-03 20:00N 37°47' W 122°17'0 0.0
2018-Jan-03 17:53N 37°47' W 122°17'4 9.5
2018-Jan-03 17:30N 37°48' W 122°22'2 3.7
2018-Jan-03 17:00N 37°50' W 122°23'4 8.9
2018-Jan-03 16:30N 37°48' W 122°18'1 1.4
2018-Jan-03 16:00N 37°47' W 122°17'0 0.0
2018-Jan-02 23:29N 37°47' W 122°17'3 6.8
2018-Jan-02 23:01N 37°46' W 122°21'0 0.7
2018-Jan-02 22:31N 37°46' W 122°21'3 6.6
2018-Jan-02 22:00N 37°47' W 122°17'1 2.3
2018-Jan-02 21:30N 37°48' W 122°19'2 4.6
2018-Jan-02 21:00N 37°46' W 122°20'0 0.1
2018-Jan-02 20:30N 37°46' W 122°20'0 0.3
2018-Jan-02 20:00N 37°45' W 122°20'0 0.2
2018-Jan-02 19:30N 37°45' W 122°20'2 4.5
2018-Jan-02 19:01N 37°48' W 122°20'2 4.4
2018-Jan-02 18:31N 37°47' W 122°17'  

Dump ship's entire track history